Time;durP1;ratioP1;P1;durP2;ratioP2;P2;SDS_P1;SDS_P2;PMS_P1;PMS_P2;Temp;Humidity;BMP_temperature;BMP_pressure;BME280_temperature;BME280_humidity;BME280_pressure;Samples;Min_cycle;Max_cycle;Signal;HPM_P1;HPM_P2
2022/07/24 00:00:45;;;;;;;;;;;;;;;-142.75;100.00;76597.84;5069730;28;20007;-68
2022/07/24 00:03:10;;;;;;;;;;;;;;;-142.75;100.00;76597.84;5053141;28;19921;-68
2022/07/24 00:05:36;;;;;;;;;;;;;;;-142.75;100.00;76593.91;5069774;28;19965;-68
2022/07/24 00:08:01;;;;;;;;;;;;;;;-142.75;100.00;76595.88;5069264;28;19927;-68
2022/07/24 00:10:26;;;;;;;;;;;;;;;-142.75;100.00;76589.97;5069700;28;19959;-68
2022/07/24 00:12:51;;;;;;;;;;;;;;;-142.75;100.00;76597.84;5069377;28;20366;-68
2022/07/24 00:15:17;;;;;;;;;;;;;;;-142.75;100.00;76597.84;5069819;28;19919;-69
2022/07/24 00:17:42;;;;;;;;;;;;;;;-142.75;100.00;76591.94;5068782;28;19913;-68
2022/07/24 00:20:08;;;;;;;;;;;;;;;-142.75;100.00;76593.91;5069561;28;19940;-68
2022/07/24 00:22:33;;;;;;;;;;;;;;;-142.75;100.00;76588.00;5070412;28;20443;-68
2022/07/24 00:24:58;;;;;;;;;;;;;;;-142.75;100.00;76595.88;5069699;28;19921;-68
2022/07/24 00:27:24;;;;;;;;;;;;;;;-142.75;100.00;76601.78;5068152;28;19913;-68
2022/07/24 00:29:49;;;;;;;;;;;;;;;-142.75;100.00;76605.72;5067916;28;19952;-69
2022/07/24 00:32:14;;;;;;;;;;;;;;;-142.75;100.00;76613.59;5069248;28;20349;-69
2022/07/24 00:34:39;;;;;;;;;;;;;;;-142.75;100.00;76611.63;5069663;28;19917;-68
2022/07/24 00:37:04;;;;;;;;;;;;;;;-142.75;100.00;76609.66;5069159;28;20393;-68
2022/07/24 00:39:30;;;;;;;;;;;;;;;-142.75;100.00;76617.53;5067270;28;20015;-68
2022/07/24 00:41:56;;;;;;;;;;;;;;;-142.75;100.00;76617.53;5069726;28;19926;-68
2022/07/24 00:44:21;;;;;;;;;;;;;;;-142.75;100.00;76613.59;5067379;28;19912;-68
2022/07/24 00:46:47;;;;;;;;;;;;;;;-142.75;100.00;76621.47;5069944;28;19916;-68
2022/07/24 00:49:14;;;;;;;;;;;;;;;-142.75;100.00;76621.47;5069467;28;19952;-68
2022/07/24 00:51:40;;;;;;;;;;;;;;;-142.75;100.00;76617.53;5069837;28;19923;-68
2022/07/24 00:54:06;;;;;;;;;;;;;;;-142.75;100.00;76617.53;5069730;28;19917;-68
2022/07/24 00:56:31;;;;;;;;;;;;;;;-142.75;100.00;76621.47;5069461;28;20446;-68
2022/07/24 00:58:57;;;;;;;;;;;;;;;-142.75;100.00;76619.50;5069268;28;19920;-68
2022/07/24 01:01:22;;;;;;;;;;;;;;;-142.75;100.00;76625.41;5068229;28;20404;-68
2022/07/24 01:03:47;;;;;;;;;;;;;;;-142.75;100.00;76625.41;5072160;28;20007;-68
2022/07/24 01:06:13;;;;;;;;;;;;;;;-142.75;100.00;76625.41;5072123;28;19917;-68
2022/07/24 01:08:38;;;;;;;;;;;;;;;-142.75;100.00;76623.44;5071909;28;19959;-68
2022/07/24 01:11:03;;;;;;;;;;;;;;;-142.75;100.00;76621.47;5072119;28;19913;-68
2022/07/24 01:13:29;;;;;;;;;;;;;;;-142.75;100.00;76621.47;5070846;28;19919;-68
2022/07/24 01:15:54;;;;;;;;;;;;;;;-142.75;100.00;76621.47;5071857;28;19919;-68
2022/07/24 01:18:19;;;;;;;;;;;;;;;-142.75;100.00;76625.41;5071581;28;19916;-68
2022/07/24 01:20:46;;;;;;;;;;;;;;;-142.75;100.00;76625.41;5071938;28;19922;-67
2022/07/24 01:23:11;;;;;;;;;;;;;;;-142.75;100.00;76623.44;5071914;28;19916;-68
2022/07/24 01:25:36;;;;;;;;;;;;;;;-142.75;100.00;76617.53;5071700;28;19920;-68
2022/07/24 01:28:02;;;;;;;;;;;;;;;-142.75;100.00;76617.53;5071631;28;20026;-68
2022/07/24 01:30:27;;;;;;;;;;;;;;;-142.75;100.00;76621.47;5071713;28;19913;-68
2022/07/24 01:32:52;;;;;;;;;;;;;;;-142.75;100.00;76621.47;5095127;22;19931;-72
2022/07/24 01:35:17;;;;;;;;;;;;;;;-142.75;100.00;76625.41;5070799;28;19962;-72
2022/07/24 01:37:42;;;;;;;;;;;;;;;-142.75;100.00;76627.38;5070809;28;20385;-69
2022/07/24 01:40:08;;;;;;;;;;;;;;;-142.75;100.00;76625.41;5071561;28;19919;-68
2022/07/24 01:42:33;;;;;;;;;;;;;;;-142.75;100.00;76627.38;5071434;28;19924;-71
2022/07/24 01:44:58;;;;;;;;;;;;;;;-142.75;100.00;76633.28;5053866;28;19962;-72
2022/07/24 01:47:23;;;;;;;;;;;;;;;-142.75;100.00;76629.34;5071854;28;20413;-73
2022/07/24 01:49:49;;;;;;;;;;;;;;;-142.75;100.00;76629.34;5053662;28;19919;-73
2022/07/24 01:52:14;;;;;;;;;;;;;;;-142.75;100.00;76627.38;5053866;28;19912;-72
2022/07/24 01:54:39;;;;;;;;;;;;;;;-142.75;100.00;76625.41;5071902;28;19912;-73
2022/07/24 01:57:04;;;;;;;;;;;;;;;-142.75;100.00;76625.41;5071783;28;20421;-72
2022/07/24 01:59:29;;;;;;;;;;;;;;;-142.75;100.00;76627.38;5071439;28;20294;-72
2022/07/24 02:01:55;;;;;;;;;;;;;;;-142.75;100.00;76633.28;5071785;28;19919;-71
2022/07/24 02:04:20;;;;;;;;;;;;;;;-142.75;100.00;76625.41;5053856;28;19965;-70
2022/07/24 02:06:45;;;;;;;;;;;;;;;-142.75;100.00;76619.50;5054385;28;19962;-72
2022/07/24 02:09:10;;;;;;;;;;;;;;;-142.75;100.00;76619.50;5075216;28;19935;-71
2022/07/24 02:11:36;;;;;;;;;;;;;;;-142.75;100.00;76623.44;5075445;28;19958;-72
2022/07/24 02:14:01;;;;;;;;;;;;;;;-142.75;100.00;76629.34;5057404;28;20016;-71
2022/07/24 02:16:27;;;;;;;;;;;;;;;-142.75;100.00;76637.22;5075456;28;19981;-68
2022/07/24 02:18:52;;;;;;;;;;;;;;;-142.75;100.00;76631.31;5075072;28;20374;-71
2022/07/24 02:21:17;;;;;;;;;;;;;;;-142.75;100.00;76635.25;5075292;28;19943;-72
2022/07/24 02:23:43;;;;;;;;;;;;;;;-142.75;100.00;76641.16;5075263;28;19924;-70
2022/07/24 02:26:08;;;;;;;;;;;;;;;-142.75;100.00;76641.16;5057212;28;20007;-69
2022/07/24 02:28:33;;;;;;;;;;;;;;;-142.75;100.00;76641.16;5074917;28;19916;-72
2022/07/24 02:30:58;;;;;;;;;;;;;;;-142.75;100.00;76645.09;5075335;28;19912;-72
2022/07/24 02:33:23;;;;;;;;;;;;;;;-142.75;100.00;76645.09;5075015;28;20293;-71
2022/07/24 02:35:49;;;;;;;;;;;;;;;-142.75;100.00;76643.13;5057149;28;19913;-71
2022/07/24 02:38:14;;;;;;;;;;;;;;;-142.75;100.00;76647.06;5074655;28;20360;-72
2022/07/24 02:40:39;;;;;;;;;;;;;;;-142.75;100.00;76643.13;5057042;28;19912;-72
2022/07/24 02:43:04;;;;;;;;;;;;;;;-142.75;100.00;76649.03;5074736;28;19967;-72
2022/07/24 02:45:30;;;;;;;;;;;;;;;-142.75;100.00;76647.06;5074801;28;20020;-71
2022/07/24 02:47:56;;;;;;;;;;;;;;;-142.75;100.00;76651.00;5056534;28;20332;-69
2022/07/24 02:50:22;;;;;;;;;;;;;;;-142.75;100.00;76649.03;5074843;28;19912;-72
2022/07/24 02:52:48;;;;;;;;;;;;;;;-142.75;100.00;76641.16;5074768;28;19913;-71
2022/07/24 02:55:13;;;;;;;;;;;;;;;-142.75;100.00;76649.03;5056765;28;20282;-71
2022/07/24 02:57:39;;;;;;;;;;;;;;;-142.75;100.00;76647.06;5074648;28;19977;-72
2022/07/24 03:00:06;;;;;;;;;;;;;;;-142.75;100.00;76651.00;5074333;28;20378;-71
2022/07/24 03:02:32;;;;;;;;;;;;;;;-142.75;100.00;76652.97;5074506;28;19919;-73
2022/07/24 03:04:57;;;;;;;;;;;;;;;-142.75;100.00;76652.97;5074570;28;20531;-69
2022/07/24 03:07:22;;;;;;;;;;;;;;;-142.75;100.00;76660.84;5074462;28;19912;-72
2022/07/24 03:09:47;;;;;;;;;;;;;;;-142.75;100.00;76654.94;5074109;28;19913;-72
2022/07/24 03:12:13;;;;;;;;;;;;;;;-142.75;100.00;76664.78;5056350;28;19912;-72
2022/07/24 03:14:38;;;;;;;;;;;;;;;-142.75;100.00;76658.88;5074386;28;19970;-71
2022/07/24 03:17:03;;;;;;;;;;;;;;;-142.75;100.00;76658.88;5074278;28;19924;-71
2022/07/24 03:19:29;;;;;;;;;;;;;;;-142.75;100.00;76654.94;5073525;28;19917;-72
2022/07/24 03:21:54;;;;;;;;;;;;;;;-142.75;100.00;76660.84;5074147;28;19919;-71
2022/07/24 03:24:19;;;;;;;;;;;;;;;-142.75;100.00;76662.81;5074162;28;19913;-70
2022/07/24 03:26:44;;;;;;;;;;;;;;;-142.75;100.00;76664.78;5074063;28;19923;-72
2022/07/24 03:29:10;;;;;;;;;;;;;;;-142.75;100.00;76666.75;5073873;28;19913;-72
2022/07/24 03:31:35;;;;;;;;;;;;;;;-142.75;100.00;76668.72;5073989;28;19992;-72
2022/07/24 03:34:01;;;;;;;;;;;;;;;-142.75;100.00;76676.59;5073825;28;19917;-72
2022/07/24 03:36:26;;;;;;;;;;;;;;;-142.75;100.00;76674.63;5073949;28;19913;-71
2022/07/24 03:38:51;;;;;;;;;;;;;;;-142.75;100.00;76678.56;5073625;28;19920;-72
2022/07/24 03:41:17;;;;;;;;;;;;;;;-142.75;100.00;76680.53;5073720;28;19961;-72
2022/07/24 03:43:42;;;;;;;;;;;;;;;-142.75;100.00;76686.44;5073688;28;19913;-71
2022/07/24 03:46:07;;;;;;;;;;;;;;;-142.75;100.00;76690.38;5055840;28;19912;-71
2022/07/24 03:48:32;;;;;;;;;;;;;;;-142.75;100.00;76690.38;5073364;28;19919;-72
2022/07/24 03:50:58;;;;;;;;;;;;;;;-142.75;100.00;76696.28;5073597;28;20492;-72
2022/07/24 03:53:23;;;;;;;;;;;;;;;-142.75;100.00;76694.31;5073685;28;19952;-71
2022/07/24 03:55:48;;;;;;;;;;;;;;;-142.75;100.00;76696.28;5073584;28;20003;-71
2022/07/24 03:58:13;;;;;;;;;;;;;;;-142.75;100.00;76696.28;5073201;28;19923;-72
2022/07/24 04:00:39;;;;;;;;;;;;;;;-142.75;100.00;76694.31;5073613;28;19913;-72
2022/07/24 04:03:04;;;;;;;;;;;;;;;-142.75;100.00;76704.16;5073261;28;19912;-73
2022/07/24 04:05:29;;;;;;;;;;;;;;;-142.75;100.00;76692.34;5073318;28;19920;-71
2022/07/24 04:07:55;;;;;;;;;;;;;;;-142.75;100.00;76698.25;5072988;28;19912;-69
2022/07/24 04:10:21;;;;;;;;;;;;;;;-142.75;100.00;76702.19;5073278;28;19912;-69
2022/07/24 04:12:46;;;;;;;;;;;;;;;-142.75;100.00;76710.06;5073243;28;20362;-72
2022/07/24 04:15:11;;;;;;;;;;;;;;;-142.75;100.00;76706.13;5073078;28;20009;-71
2022/07/24 04:17:40;;;;;;;;;;;;;;;-142.75;100.00;76704.16;5055169;28;19912;-72
2022/07/24 04:20:06;;;;;;;;;;;;;;;-142.75;100.00;76712.03;5072819;28;19912;-72
2022/07/24 04:22:31;;;;;;;;;;;;;;;-142.75;100.00;76702.19;5072948;28;19932;-72
2022/07/24 04:24:56;;;;;;;;;;;;;;;-142.75;100.00;76700.22;5072853;28;19912;-69
2022/07/24 04:27:21;;;;;;;;;;;;;;;-142.75;100.00;76704.16;5073119;28;19935;-70
2022/07/24 04:29:46;;;;;;;;;;;;;;;-142.75;100.00;76708.09;5071878;28;19912;-72
2022/07/24 04:32:11;;;;;;;;;;;;;;;-142.75;100.00;76710.06;5072630;28;20317;-72
2022/07/24 04:34:40;;;;;;;;;;;;;;;-142.75;100.00;76712.03;5072830;28;19912;-71
2022/07/24 04:37:05;;;;;;;;;;;;;;;-142.75;100.00;76719.91;5072719;28;20028;-72
2022/07/24 04:39:30;;;;;;;;;;;;;;;-142.75;100.00;76710.06;5072183;28;19917;-71
2022/07/24 04:41:55;;;;;;;;;;;;;;;-142.75;100.00;76719.91;5072614;28;19923;-71
2022/07/24 04:44:21;;;;;;;;;;;;;;;-142.75;100.00;76715.97;5072613;28;19908;-69
2022/07/24 04:46:46;;;;;;;;;;;;;;;-142.75;100.00;76717.94;5072631;28;19912;-72
2022/07/24 04:49:11;;;;;;;;;;;;;;;-142.75;100.00;76715.97;5072321;28;20374;-71
2022/07/24 04:51:36;;;;;;;;;;;;;;;-142.75;100.00;76706.13;5072662;28;19912;-72
2022/07/24 04:54:01;;;;;;;;;;;;;;;-142.75;100.00;76704.16;5072386;28;19935;-71
2022/07/24 04:56:31;;;;;;;;;;;;;;;-142.75;100.00;76704.16;5072414;28;19913;-72
2022/07/24 04:58:56;;;;;;;;;;;;;;;-142.75;100.00;76692.34;5071977;28;20015;-69
2022/07/24 05:01:22;;;;;;;;;;;;;;;-142.75;100.00;76696.28;5054497;28;19963;-71
2022/07/24 05:03:47;;;;;;;;;;;;;;;-142.75;100.00;76688.41;5072482;28;19916;-72
2022/07/24 05:06:12;;;;;;;;;;;;;;;-142.75;100.00;76678.56;5072378;28;19912;-72
2022/07/24 05:08:37;;;;;;;;;;;;;;;-142.75;100.00;76668.72;5072024;28;19917;-72
2022/07/24 05:11:02;;;;;;;;;;;;;;;-142.75;100.00;76660.84;5072329;28;19916;-72
2022/07/24 05:13:28;;;;;;;;;;;;;;;-142.75;100.00;76643.13;5072188;28;19919;-72
2022/07/24 05:15:55;;;;;;;;;;;;;;;-142.75;100.00;76651.00;5072325;28;19916;-72
2022/07/24 05:18:20;;;;;;;;;;;;;;;-142.75;100.00;76637.22;5071939;28;19924;-69
2022/07/24 05:20:45;;;;;;;;;;;;;;;-142.75;100.00;76633.28;5072253;28;19963;-72
2022/07/24 05:23:10;;;;;;;;;;;;;;;-142.75;100.00;76621.47;5072168;28;19920;-71
2022/07/24 05:25:35;;;;;;;;;;;;;;;-142.75;100.00;76603.75;5072265;28;20049;-72
2022/07/24 05:28:00;;;;;;;;;;;;;;;-142.75;100.00;76586.03;5071970;28;19943;-72
2022/07/24 05:30:26;;;;;;;;;;;;;;;-142.75;100.00;76570.28;5072101;28;20393;-70
2022/07/24 05:32:51;;;;;;;;;;;;;;;-142.75;100.00;76558.47;5071855;28;19923;-72
2022/07/24 05:35:16;;;;;;;;;;;;;;;-142.75;100.00;76552.56;5072189;28;19912;-72
2022/07/24 05:37:41;;;;;;;;;;;;;;;-142.75;100.00;76546.66;5054039;28;19913;-71
2022/07/24 05:40:07;;;;;;;;;;;;;;;-142.75;100.00;76534.84;5071861;28;19912;-72
2022/07/24 05:42:32;;;;;;;;;;;;;;;-142.75;100.00;76532.88;5075622;28;19912;-72
2022/07/24 05:44:57;;;;;;;;;;;;;;;-142.75;100.00;76511.25;5076170;28;19947;-73
2022/07/24 05:47:22;;;;;;;;;;;;;;;-142.75;100.00;76515.19;5076055;28;20015;-71
2022/07/24 05:49:48;;;;;;;;;;;;;;;-142.75;100.00;76503.38;5057737;28;20431;-73
2022/07/24 05:52:13;;;;;;;;;;;;;;;-142.75;100.00;76501.41;5075939;28;20393;-72
2022/07/24 05:54:38;;;;;;;;;;;;;;;-142.75;100.00;76475.81;5075678;28;19913;-73
2022/07/24 05:57:03;;;;;;;;;;;;;;;-142.75;100.00;76458.09;5075735;28;19916;-72
2022/07/24 05:59:29;;;;;;;;;;;;;;;-142.75;100.00;76436.44;5075556;28;20034;-73
2022/07/24 06:01:54;;;;;;;;;;;;;;;-142.75;100.00;76424.63;5075663;28;20054;-68
2022/07/24 06:04:19;;;;;;;;;;;;;;;-142.75;100.00;76408.88;5075770;28;19913;-71
2022/07/24 06:06:44;;;;;;;;;;;;;;;-142.75;100.00;76385.25;5075688;28;20378;-72
2022/07/24 06:09:09;;;;;;;;;;;;;;;-142.75;100.00;76389.19;5075278;28;20414;-72
2022/07/24 06:11:35;;;;;;;;;;;;;;;-142.75;100.00;76401.00;5075509;28;20361;-72
2022/07/24 06:14:00;;;;;;;;;;;;;;;-142.75;100.00;76401.00;5057784;28;19912;-72
2022/07/24 06:16:25;;;;;;;;;;;;;;;-142.75;100.00;76408.88;5075623;28;19951;-69
2022/07/24 06:18:50;;;;;;;;;;;;;;;-142.75;100.00;76401.00;5057097;28;19924;-72
2022/07/24 06:21:15;;;;;;;;;;;;;;;-142.75;100.00;76379.34;5075556;28;19951;-72
2022/07/24 06:23:41;;;;;;;;;;;;;;;-142.75;100.00;76361.63;5057188;28;20325;-72
2022/07/24 06:26:06;;;;;;;;;;;;;;;-142.75;100.00;76343.94;5075257;28;19919;-72
2022/07/24 06:28:31;;;;;;;;;;;;;;;-142.75;100.00;76334.09;5075107;28;19999;-72
2022/07/24 06:30:57;;;;;;;;;;;;;;;-142.75;100.00;76298.66;5057156;28;20427;-71
2022/07/24 06:33:22;;;;;;;;;;;;;;;-142.75;100.00;76282.91;5074919;28;19917;-71
2022/07/24 06:35:47;;;;;;;;;;;;;;;-142.75;100.00;76278.97;5075047;28;19946;-72
2022/07/24 06:38:12;;;;;;;;;;;;;;;-142.75;100.00;76263.22;5074679;28;19917;-72
2022/07/24 06:40:38;;;;;;;;;;;;;;;-142.75;100.00;76259.28;5074972;28;19982;-72
2022/07/24 06:43:04;;;;;;;;;;;;;;;-142.75;100.00;76251.41;5074866;28;19923;-72
2022/07/24 06:45:32;;;;;;;;;;;;;;;-142.75;100.00;76219.91;5056894;28;19913;-72
2022/07/24 06:47:57;;;;;;;;;;;;;;;-142.75;100.00;76219.91;5074589;28;19912;-72
2022/07/24 06:50:22;;;;;;;;;;;;;;;-142.75;100.00;76204.16;5074890;28;19916;-72
2022/07/24 06:52:47;;;;;;;;;;;;;;;-142.75;100.00;76210.06;5073916;28;19913;-72
2022/07/24 06:55:13;;;;;;;;;;;;;;;-142.75;100.00;76219.91;5074588;28;19935;-72
2022/07/24 06:57:38;;;;;;;;;;;;;;;-142.75;100.00;76227.78;5074715;28;20007;-72
2022/07/24 07:00:08;;;;;;;;;;;;;;;-142.75;100.00;76229.75;5074438;28;20267;-71
2022/07/24 07:02:33;;;;;;;;;;;;;;;-142.75;100.00;76245.50;5074530;28;19912;-72
2022/07/24 07:04:58;;;;;;;;;;;;;;;-142.75;100.00;76215.97;5074538;28;20003;-72
2022/07/24 07:07:24;;;;;;;;;;;;;;;-142.75;100.00;76198.28;5056398;28;19923;-69
2022/07/24 07:09:49;;;;;;;;;;;;;;;-142.75;100.00;76145.13;5074177;28;20378;-73
2022/07/24 07:12:14;;;;;;;;;;;;;;;-142.75;100.00;76113.63;5074359;28;19916;-72
2022/07/24 07:14:39;;;;;;;;;;;;;;;-142.75;100.00;76080.16;5074508;28;20405;-73
2022/07/24 07:17:05;;;;;;;;;;;;;;;-142.75;100.00;76056.56;5074299;28;19969;-72
2022/07/24 07:19:30;;;;;;;;;;;;;;;-142.75;100.00;76046.72;5073930;28;19917;-72
2022/07/24 07:21:55;;;;;;;;;;;;;;;-142.75;100.00;76036.88;5056201;28;20317;-71
2022/07/24 07:24:21;;;;;;;;;;;;;;;-142.75;100.00;76030.97;5074110;28;19939;-71
2022/07/24 07:26:46;;;;;;;;;;;;;;;-142.75;100.00;76025.06;5056504;28;19913;-71
2022/07/24 07:29:11;;;;;;;;;;;;;;;-142.75;100.00;76050.66;5073733;28;19912;-73
2022/07/24 07:31:37;;;;;;;;;;;;;;;-142.75;100.00;76042.78;5056184;28;19919;-73
2022/07/24 07:34:02;;;;;;;;;;;;;;;-142.75;100.00;76003.41;5071730;22;19935;-69
2022/07/24 07:36:27;;;;;;;;;;;;;;;-142.75;100.00;76001.44;5052623;28;20382;-68
2022/07/24 07:38:52;;;;;;;;;;;;;;;-142.75;100.00;75958.16;5052202;28;19917;-69
2022/07/24 07:41:19;;;;;;;;;;;;;;;-142.75;100.00;75936.50;5053764;28;19912;-69
2022/07/24 07:43:44;;;;;;;;;;;;;;;-142.75;100.00;75944.38;5052355;28;19913;-69
2022/07/24 07:46:09;;;;;;;;;;;;;;;-142.75;100.00;75934.53;5052468;28;19962;-69
2022/07/24 07:48:35;;;;;;;;;;;;;;;-142.75;100.00;75928.63;5052065;28;20301;-69
2022/07/24 07:51:00;;;;;;;;;;;;;;;-142.75;100.00;75958.16;5053587;28;19960;-69
2022/07/24 07:53:25;;;;;;;;;;;;;;;-142.75;100.00;75977.81;5053412;28;19913;-69
2022/07/24 07:55:52;;;;;;;;;;;;;;;-142.75;100.00;75964.03;5053682;28;19959;-69
2022/07/24 07:58:18;;;;;;;;;;;;;;;-142.75;100.00;75962.09;5053076;28;19924;-68
2022/07/24 08:00:43;;;;;;;;;;;;;;;-142.75;100.00;75969.94;5053411;28;19917;-69
2022/07/24 08:03:08;;;;;;;;;;;;;;;-142.75;100.00;75971.91;5053336;28;19913;-68
2022/07/24 08:05:34;;;;;;;;;;;;;;;-142.75;100.00;76013.25;5052270;28;20018;-68
2022/07/24 08:07:59;;;;;;;;;;;;;;;-142.75;100.00;75997.50;5052997;28;20014;-68
2022/07/24 08:10:24;;;;;;;;;;;;;;;-142.75;100.00;76009.31;5053162;28;20003;-69
2022/07/24 08:12:49;;;;;;;;;;;;;;;-142.75;100.00;75975.84;5053140;28;19919;-69
2022/07/24 08:15:14;;;;;;;;;;;;;;;-142.75;100.00;75975.84;5051835;28;19920;-69
2022/07/24 08:17:39;;;;;;;;;;;;;;;-142.75;100.00;75987.66;5053054;28;19917;-69
2022/07/24 08:20:05;;;;;;;;;;;;;;;-142.75;100.00;75944.38;5052627;28;19921;-68
2022/07/24 08:22:30;;;;;;;;;;;;;;;-142.75;100.00;75901.06;5052901;28;19917;-68
2022/07/24 08:24:55;;;;;;;;;;;;;;;-142.75;100.00;75857.78;5052896;28;19912;-69
2022/07/24 08:27:21;;;;;;;;;;;;;;;-142.75;100.00;75857.78;5052270;28;19999;-69
2022/07/24 08:29:46;;;;;;;;;;;;;;;-142.75;100.00;75844.00;5052126;28;19917;-69
2022/07/24 08:32:11;;;;;;;;;;;;;;;-142.75;100.00;75802.66;5052038;28;19913;-70
2022/07/24 08:34:36;;;;;;;;;;;;;;;-142.75;95.97;75802.66;5052191;28;20466;-69
2022/07/24 08:37:01;;;;;;;;;;;;;;;-142.75;100.00;75775.09;5052692;28;20457;-69
2022/07/24 08:39:27;;;;;;;;;;;;;;;-142.75;100.00;75761.34;5051777;28;19973;-69
2022/07/24 08:41:52;;;;;;;;;;;;;;;-142.75;95.39;75771.16;5052046;28;19921;-69
2022/07/24 08:44:17;;;;;;;;;;;;;;;-142.75;97.19;75779.03;5051992;28;20378;-69
2022/07/24 08:46:42;;;;;;;;;;;;;;;-142.75;96.56;75759.38;5051655;28;20405;-68
2022/07/24 08:49:12;;;;;;;;;;;;;;;-142.75;92.38;75753.47;5050489;28;19913;-68
2022/07/24 08:51:39;;;;;;;;;;;;;;;-142.75;91.99;75802.66;5051910;28;20011;-68
2022/07/24 08:54:04;;;;;;;;;;;;;;;-142.75;95.02;75818.41;5051928;28;19917;-68
2022/07/24 08:56:30;;;;;;;;;;;;;;;-142.75;91.37;75784.94;5052103;28;19913;-69
2022/07/24 08:58:55;;;;;;;;;;;;;;;-142.75;89.45;75810.53;5051470;28;19971;-67
2022/07/24 09:01:20;;;;;;;;;;;;;;;-142.75;94.57;75769.19;5052392;28;20399;-68
2022/07/24 09:03:46;;;;;;;;;;;;;;;-142.75;95.02;75731.81;5052411;28;19959;-68
2022/07/24 09:06:12;;;;;;;;;;;;;;;-142.75;88.54;75686.53;5052225;28;19959;-68
2022/07/24 09:08:42;;;;;;;;;;;;;;;-142.75;85.03;75664.91;5051966;28;19912;-68
2022/07/24 09:11:09;;;;;;;;;;;;;;;-142.75;88.72;75643.25;5052333;28;19913;-69
2022/07/24 09:16:22;;;;;;;;;;;;;;;-142.75;84.32;75720.00;5052088;28;19919;-68
2022/07/24 09:18:47;;;;;;;;;;;;;;;-142.75;90.97;75723.94;5051731;28;19917;-69
2022/07/24 09:21:14;;;;;;;;;;;;;;;-142.75;90.81;75712.13;5052076;28;20007;-69
2022/07/24 09:23:40;;;;;;;;;;;;;;;-142.75;85.63;75692.44;5051972;28;20339;-69
2022/07/24 09:26:05;;;;;;;;;;;;;;;-142.75;88.74;75664.91;5051945;28;19958;-69
2022/07/24 09:28:45;;;;;;;;;;;;;;;-142.75;88.12;75694.41;5051743;28;19999;-69
2022/07/24 09:31:10;;;;;;;;;;;;;;;-142.75;86.68;75670.81;5052001;28;19916;-69
2022/07/24 09:33:36;;;;;;;;;;;;;;;-142.75;86.85;75635.38;5051757;28;19917;-69
2022/07/24 09:36:10;;;;;;;;;;;;;;;-142.75;85.03;75621.59;5051799;28;19912;-70
2022/07/24 09:38:35;;;;;;;;;;;;;;;-142.75;85.17;75629.47;5051629;28;19923;-69
2022/07/24 09:41:00;;;;;;;;;;;;;;;-142.75;89.22;75621.59;5051907;28;20011;-69
2022/07/24 09:43:32;;;;;;;;;;;;;;;-142.75;84.90;75641.28;5051702;28;19959;-68
2022/07/24 09:46:00;;;;;;;;;;;;;;;-142.75;86.71;75611.75;5051883;28;19947;-69
2022/07/24 09:48:30;;;;;;;;;;;;;;;-142.75;84.06;75633.41;5050323;28;19920;-69
2022/07/24 09:50:56;;;;;;;;;;;;;;;-142.75;84.90;75607.81;5051769;28;19912;-70
2022/07/24 09:53:23;;;;;;;;;;;;;;;-142.75;87.39;75546.81;5052053;28;20298;-67
2022/07/24 09:56:00;;;;;;;;;;;;;;;-142.75;80.33;75507.47;5051720;28;19912;-69
2022/07/24 09:58:26;;;;;;;;;;;;;;;-142.75;79.03;75479.91;5051357;28;20392;-68
2022/07/24 10:00:55;;;;;;;;;;;;;;;-142.75;79.05;75442.50;5051697;28;19912;-69
2022/07/24 10:03:23;;;;;;;;;;;;;;;-142.75;78.95;75436.59;5051641;28;20279;-69
2022/07/24 10:05:53;;;;;;;;;;;;;;;-142.75;75.56;75399.22;5051509;28;19999;-69
2022/07/24 10:08:19;;;;;;;;;;;;;;;-142.75;77.61;75353.97;5051318;28;19913;-69
2022/07/24 10:10:44;;;;;;;;;;;;;;;-142.75;76.01;75318.53;5051481;28;19913;-69
2022/07/24 10:13:10;;;;;;;;;;;;;;;-142.75;72.26;75318.53;5050276;28;20376;-70
2022/07/24 10:15:41;;;;;;;;;;;;;;;-142.75;71.86;75342.16;5051480;28;19963;-69
2022/07/24 10:18:16;;;;;;;;;;;;;;;-142.75;72.29;75416.94;5049866;28;19920;-69
2022/07/24 10:20:44;;;;;;;;;;;;;;;-142.75;74.08;75387.41;5051511;28;20004;-69
2022/07/24 10:23:14;;;;;;;;;;;;;;;-142.75;73.07;75405.13;5050132;28;19913;-68
2022/07/24 10:25:53;;;;;;;;;;;;;;;-142.75;78.00;75403.16;5051506;28;20007;-70
2022/07/24 10:28:30;;;;;;;;;;;;;;;-142.75;75.54;75365.75;5052620;28;19913;-69
2022/07/24 10:30:56;;;;;;;;;;;;;;;-142.75;72.14;75365.75;5055069;28;19913;-69
2022/07/24 10:33:21;;;;;;;;;;;;;;;-142.75;71.44;75350.03;5054874;28;19917;-69
2022/07/24 10:35:47;;;;;;;;;;;;;;;-142.75;72.64;75298.84;5054861;28;19932;-69
2022/07/24 10:38:16;;;;;;;;;;;;;;;-142.75;68.26;75318.53;5054630;28;19923;-68
2022/07/24 10:40:47;;;;;;;;;;;;;;;-142.75;71.33;75334.28;5054923;28;19913;-69
2022/07/24 10:43:14;;;;;;;;;;;;;;;-142.75;69.49;75322.47;5054809;28;19962;-68
2022/07/24 10:45:48;;;;;;;;;;;;;;;-142.75;69.94;75355.94;5054462;28;20386;-69
2022/07/24 10:48:22;;;;;;;;;;;;;;;-142.75;71.29;75318.53;5053758;28;20439;-68
2022/07/24 10:50:56;;;;;;;;;;;;;;;-142.75;70.21;75292.97;5052253;28;20425;-68
2022/07/24 10:53:22;;;;;;;;;;;;;;;-142.75;70.49;75342.16;5054151;28;19917;-69
2022/07/24 10:55:47;;;;;;;;;;;;;;;-142.75;76.33;75283.13;5054139;28;19913;-70
2022/07/24 10:58:14;;;;;;;;;;;;;;;-142.75;71.87;75243.75;5054209;28;19932;-68
2022/07/24 11:00:49;;;;;;;;;;;;;;;-142.75;70.71;75239.81;5054434;28;20007;-68
2022/07/24 11:03:21;;;;;;;;;;;;;;;-142.75;70.15;75216.22;5054423;28;19912;-68
2022/07/24 11:06:08;;;;;;;;;;;;;;;-142.75;67.78;75289.03;5054556;28;19913;-69
2022/07/24 11:08:39;;;;;;;;;;;;;;;-142.75;69.64;75292.97;5054270;28;19924;-68
2022/07/24 11:11:06;;;;;;;;;;;;;;;-142.75;71.37;75255.56;5052965;28;19967;-68
2022/07/24 11:13:31;;;;;;;;;;;;;;;-142.75;72.00;75269.34;5054382;28;19920;-68
2022/07/24 11:16:11;;;;;;;;;;;;;;;-142.75;69.65;75267.38;5054227;28;19913;-69
2022/07/24 11:18:37;;;;;;;;;;;;;;;-142.75;68.72;75220.16;5053843;28;20326;-70
2022/07/24 11:21:02;;;;;;;;;;;;;;;-142.75;68.12;75155.22;5053567;28;19916;-69
2022/07/24 11:23:27;;;;;;;;;;;;;;;-142.75;67.07;75216.22;5053945;28;20296;-69
2022/07/24 11:26:11;;;;;;;;;;;;;;;-142.75;68.77;75216.22;5054136;28;19935;-69
2022/07/24 11:28:36;;;;;;;;;;;;;;;-142.75;67.01;75180.78;5053794;28;19924;-68
2022/07/24 11:31:03;;;;;;;;;;;;;;;-142.75;68.40;75168.97;5052601;28;19917;-68
2022/07/24 11:33:29;;;;;;;;;;;;;;;-142.75;68.12;75172.91;5053768;28;19923;-68
2022/07/24 11:35:54;;;;;;;;;;;;;;;-142.75;67.49;75239.81;5053809;28;19912;-68
2022/07/24 11:38:27;;;;;;;;;;;;;;;-142.75;72.02;75192.59;5053319;28;19917;-68
2022/07/24 11:41:03;;;;;;;;;;;;;;;-142.75;68.82;75226.06;5053886;28;19913;-69
2022/07/24 11:43:29;;;;;;;;;;;;;;;-142.75;70.67;75235.88;5053686;28;19913;-69
2022/07/24 11:45:54;;;;;;;;;;;;;;;-142.75;69.56;75237.84;5052284;28;19920;-69
2022/07/24 11:48:19;;;;;;;;;;;;;;;-142.75;69.10;75231.94;5053037;28;19917;-70
2022/07/24 11:50:45;;;;;;;;;;;;;;;-142.75;69.44;75259.50;5053443;28;19917;-69
2022/07/24 11:53:10;;;;;;;;;;;;;;;-142.75;70.47;75237.84;5052080;28;20441;-68
2022/07/24 11:55:36;;;;;;;;;;;;;;;-142.75;71.77;75180.78;5053472;28;19912;-69
2022/07/24 11:58:02;;;;;;;;;;;;;;;-142.75;68.95;75115.84;5053071;28;20390;-69
2022/07/24 12:00:27;;;;;;;;;;;;;;;-142.75;68.30;75125.69;5053504;28;19955;-70
2022/07/24 12:02:54;;;;;;;;;;;;;;;-142.75;68.44;75078.47;5053229;28;20290;-70
2022/07/24 12:05:27;;;;;;;;;;;;;;;-142.75;68.01;75107.97;5053264;28;19912;-68
2022/07/24 12:07:52;;;;;;;;;;;;;;;-142.75;67.07;75129.63;5052998;28;19941;-69
2022/07/24 12:10:22;;;;;;;;;;;;;;;-142.75;70.96;75098.16;5053268;28;19953;-70
2022/07/24 12:12:48;;;;;;;;;;;;;;;-142.75;66.97;75125.69;5053036;28;19923;-69
2022/07/24 12:15:14;;;;;;;;;;;;;;;-142.75;68.62;75167.00;5053184;28;19912;-69
2022/07/24 12:17:59;;;;;;;;;;;;;;;-142.75;68.44;75139.47;5052980;28;19965;-69